Main page
METAR-TAF:

METAR-TAF

Airports :

Cherif Al Idrissi Airport

Al Hoceima, Morocco

latitude: 35-11N, longitude: 003-51W, elevation: 27 m

Current weather observation

The report was made 25 minutes ago, at 22:00 UTC
Wind 2 kt from the Southeast
Temperature 24°C
Humidity 50%
Pressure 1014 hPa
Visibility 10 km or more
no clouds below 1500 m and no cumulonimbus

METAR: GMTA 182200Z 14002KT CAVOK 24/13 Q1014 NOSIG

Time: 23:25 (22:25 UTC)

Forecast

The report was made 5 hours and 25 minutes ago, at 17:00 UTC
Forecast valid from 18 at 18 UTC to 19 at 24 UTC
Wind 6 kt from the North/Northeast
Visibility 10 km or more
no clouds below 1500 m and no cumulonimbus

TAF: GMTA 181700Z 1818/1924 02006KT CAVOK

Weather observations and forecasts of more than 4000 airports (METAR and TAF reports).

The available stations are represented by yellow and red dots on the map.

Hover mouse over dot to see the name of the station.

Then click to see weather observations and forecasts.

To change the map : click on the green buttons with a black cross to zoom in, on the green button with a dash to zoom out, or on the green arrows for adjacent maps.


METAR-TAF: